Vada, Kentucky
Current Conditions -  °F | °C
As of 2:53 PM on Saturday 20 Dec 2014 (Local Time) from KJKL Reporting Station
Overcast Overcast  
Wind Chill: 38°   Ceiling: 4800
Heat Index: 38°   Visibility: 10mi
Dew Point: 25°   Wind: 0mph
Humidity: 60%   Direction: NA
Pressure: 30.18"   Gusts: NA
Location:  37.5908°N, 83.7186°W
Report Text: KJKL 201953Z AUTO 00000KT 10SM OVC048 03/M04 A3018 RMK AO2 SLP230 T00331039
Loading
Personal Weather Stations






























Interactive Weather Map New forecast layout! Learn more

10-Day Weather Forecast

Advertisements
Track Severe Weather on mobile